sensor_id;sensor_type;location;lat;lon;timestamp;temperature;humidity
2897;DHT22;1458;49.728;9.228;2022-12-29T00:00:21;8.90;99.90
2897;DHT22;1458;49.728;9.228;2022-12-29T00:02:50;9.70;99.90
2897;DHT22;1458;49.728;9.228;2022-12-29T00:05:17;10.10;99.90
2897;DHT22;1458;49.728;9.228;2022-12-29T00:07:44;10.50;99.90
2897;DHT22;1458;49.728;9.228;2022-12-29T00:10:11;10.50;99.90
2897;DHT22;1458;49.728;9.228;2022-12-29T00:12:39;10.70;99.20
2897;DHT22;1458;49.728;9.228;2022-12-29T00:15:24;10.70;98.90
2897;DHT22;1458;49.728;9.228;2022-12-29T00:18:05;10.60;98.10
2897;DHT22;1458;49.728;9.228;2022-12-29T00:20:34;10.50;98.00
2897;DHT22;1458;49.728;9.228;2022-12-29T00:23:19;10.50;98.10
2897;DHT22;1458;49.728;9.228;2022-12-29T00:26:11;10.40;98.00
2897;DHT22;1458;49.728;9.228;2022-12-29T00:28:57;10.40;98.20
2897;DHT22;1458;49.728;9.228;2022-12-29T00:31:42;10.60;97.30
2897;DHT22;1458;49.728;9.228;2022-12-29T00:34:28;10.60;97.00
2897;DHT22;1458;49.728;9.228;2022-12-29T00:37:13;10.60;96.90
2897;DHT22;1458;49.728;9.228;2022-12-29T00:39:40;10.50;96.80
2897;DHT22;1458;49.728;9.228;2022-12-29T00:42:25;10.60;96.90
2897;DHT22;1458;49.728;9.228;2022-12-29T00:45:10;10.60;96.80
2897;DHT22;1458;49.728;9.228;2022-12-29T00:47:37;10.90;96.30
2897;DHT22;1458;49.728;9.228;2022-12-29T00:50:07;10.90;96.60
2897;DHT22;1458;49.728;9.228;2022-12-29T00:52:33;11.00;96.00
2897;DHT22;1458;49.728;9.228;2022-12-29T00:55:01;11.10;96.20
2897;DHT22;1458;49.728;9.228;2022-12-29T00:57:28;11.10;96.20
2897;DHT22;1458;49.728;9.228;2022-12-29T00:59:56;11.20;95.90
2897;DHT22;1458;49.728;9.228;2022-12-29T01:02:23;11.30;96.30
2897;DHT22;1458;49.728;9.228;2022-12-29T01:04:51;11.40;96.00
2897;DHT22;1458;49.728;9.228;2022-12-29T01:07:19;11.60;95.80
2897;DHT22;1458;49.728;9.228;2022-12-29T01:09:47;11.60;95.80
2897;DHT22;1458;49.728;9.228;2022-12-29T01:12:33;11.50;95.80
2897;DHT22;1458;49.728;9.228;2022-12-29T01:15:12;11.50;96.00
2897;DHT22;1458;49.728;9.228;2022-12-29T01:17:41;11.60;95.40
2897;DHT22;1458;49.728;9.228;2022-12-29T01:20:09;11.50;95.60
2897;DHT22;1458;49.728;9.228;2022-12-29T01:22:39;11.40;96.20
2897;DHT22;1458;49.728;9.228;2022-12-29T01:25:08;11.30;96.80
2897;DHT22;1458;49.728;9.228;2022-12-29T01:27:37;11.20;98.00
2897;DHT22;1458;49.728;9.228;2022-12-29T01:30:06;11.20;98.60
2897;DHT22;1458;49.728;9.228;2022-12-29T01:32:34;11.10;99.00
2897;DHT22;1458;49.728;9.228;2022-12-29T01:35:01;11.00;99.90
2897;DHT22;1458;49.728;9.228;2022-12-29T01:37:29;10.90;99.90
2897;DHT22;1458;49.728;9.228;2022-12-29T01:39:58;10.80;99.90
2897;DHT22;1458;49.728;9.228;2022-12-29T01:42:25;10.80;99.90
2897;DHT22;1458;49.728;9.228;2022-12-29T01:44:55;10.70;99.90
2897;DHT22;1458;49.728;9.228;2022-12-29T01:47:30;10.70;99.90
2897;DHT22;1458;49.728;9.228;2022-12-29T01:50:04;10.70;99.90
2897;DHT22;1458;49.728;9.228;2022-12-29T01:52:36;10.60;99.90
2897;DHT22;1458;49.728;9.228;2022-12-29T01:55:09;10.60;99.90
2897;DHT22;1458;49.728;9.228;2022-12-29T01:57:40;10.50;99.90
2897;DHT22;1458;49.728;9.228;2022-12-29T02:00:13;10.50;99.90
2897;DHT22;1458;49.728;9.228;2022-12-29T02:02:42;10.60;99.90
2897;DHT22;1458;49.728;9.228;2022-12-29T02:05:18;10.60;99.90
2897;DHT22;1458;49.728;9.228;2022-12-29T02:07:50;10.60;99.90
2897;DHT22;1458;49.728;9.228;2022-12-29T02:10:21;10.60;99.90
2897;DHT22;1458;49.728;9.228;2022-12-29T02:12:51;10.40;99.90
2897;DHT22;1458;49.728;9.228;2022-12-29T02:15:23;10.40;99.90
2897;DHT22;1458;49.728;9.228;2022-12-29T02:18:07;10.30;99.90
2897;DHT22;1458;49.728;9.228;2022-12-29T02:24:16;10.20;99.90
2897;DHT22;1458;49.728;9.228;2022-12-29T02:27:33;10.10;99.90
2897;DHT22;1458;49.728;9.228;2022-12-29T02:30:25;10.00;99.90
2897;DHT22;1458;49.728;9.228;2022-12-29T02:33:06;10.00;99.90
2897;DHT22;1458;49.728;9.228;2022-12-29T02:35:45;10.10;99.90
2897;DHT22;1458;49.728;9.228;2022-12-29T02:38:22;10.10;99.90
2897;DHT22;1458;49.728;9.228;2022-12-29T02:41:00;10.20;99.90
2897;DHT22;1458;49.728;9.228;2022-12-29T02:43:36;10.20;99.90
2897;DHT22;1458;49.728;9.228;2022-12-29T02:46:12;10.40;99.90
2897;DHT22;1458;49.728;9.228;2022-12-29T02:48:47;10.40;99.90
2897;DHT22;1458;49.728;9.228;2022-12-29T02:51:23;10.40;99.90
2897;DHT22;1458;49.728;9.228;2022-12-29T02:53:53;10.40;99.90
2897;DHT22;1458;49.728;9.228;2022-12-29T02:56:39;10.50;99.90
2897;DHT22;1458;49.728;9.228;2022-12-29T02:59:06;10.60;99.90
2897;DHT22;1458;49.728;9.228;2022-12-29T03:01:50;10.70;99.90
2897;DHT22;1458;49.728;9.228;2022-12-29T03:05:00;10.70;99.90
2897;DHT22;1458;49.728;9.228;2022-12-29T03:07:40;10.60;99.90
2897;DHT22;1458;49.728;9.228;2022-12-29T03:10:19;10.50;99.90
2897;DHT22;1458;49.728;9.228;2022-12-29T03:12:56;10.50;99.90
2897;DHT22;1458;49.728;9.228;2022-12-29T03:15:55;10.60;99.90
2897;DHT22;1458;49.728;9.228;2022-12-29T03:18:42;10.70;99.90
2897;DHT22;1458;49.728;9.228;2022-12-29T03:21:17;10.70;99.90
2897;DHT22;1458;49.728;9.228;2022-12-29T03:23:48;10.70;99.90
2897;DHT22;1458;49.728;9.228;2022-12-29T03:26:17;10.70;99.90
2897;DHT22;1458;49.728;9.228;2022-12-29T03:28:51;10.80;99.90
2897;DHT22;1458;49.728;9.228;2022-12-29T03:31:24;10.80;99.90
2897;DHT22;1458;49.728;9.228;2022-12-29T03:33:55;10.80;99.90
2897;DHT22;1458;49.728;9.228;2022-12-29T03:36:27;10.80;99.90
2897;DHT22;1458;49.728;9.228;2022-12-29T03:39:01;10.90;99.90
2897;DHT22;1458;49.728;9.228;2022-12-29T03:41:33;10.90;99.90
2897;DHT22;1458;49.728;9.228;2022-12-29T03:44:02;11.00;99.90
2897;DHT22;1458;49.728;9.228;2022-12-29T03:46:32;11.00;99.90
2897;DHT22;1458;49.728;9.228;2022-12-29T03:49:01;11.00;99.90
2897;DHT22;1458;49.728;9.228;2022-12-29T03:51:29;11.00;99.90
2897;DHT22;1458;49.728;9.228;2022-12-29T03:53:56;11.10;99.90
2897;DHT22;1458;49.728;9.228;2022-12-29T03:56:24;11.10;99.90
2897;DHT22;1458;49.728;9.228;2022-12-29T03:58:52;11.00;99.90
2897;DHT22;1458;49.728;9.228;2022-12-29T04:01:37;11.10;99.90
2897;DHT22;1458;49.728;9.228;2022-12-29T04:04:06;11.00;99.90
2897;DHT22;1458;49.728;9.228;2022-12-29T04:06:33;10.90;99.90
2897;DHT22;1458;49.728;9.228;2022-12-29T04:09:04;10.90;99.90
2897;DHT22;1458;49.728;9.228;2022-12-29T04:11:37;11.00;99.90
2897;DHT22;1458;49.728;9.228;2022-12-29T04:14:05;11.20;99.90
2897;DHT22;1458;49.728;9.228;2022-12-29T04:16:33;11.20;99.90
2897;DHT22;1458;49.728;9.228;2022-12-29T04:19:02;11.10;99.90
2897;DHT22;1458;49.728;9.228;2022-12-29T04:21:31;11.20;99.90
2897;DHT22;1458;49.728;9.228;2022-12-29T04:23:58;11.20;99.90
2897;DHT22;1458;49.728;9.228;2022-12-29T04:26:26;11.00;99.90
2897;DHT22;1458;49.728;9.228;2022-12-29T04:29:03;11.00;99.90
2897;DHT22;1458;49.728;9.228;2022-12-29T04:31:49;11.00;99.90
2897;DHT22;1458;49.728;9.228;2022-12-29T04:34:18;11.00;99.90
2897;DHT22;1458;49.728;9.228;2022-12-29T04:36:48;11.00;99.90
2897;DHT22;1458;49.728;9.228;2022-12-29T04:39:16;11.10;99.90
2897;DHT22;1458;49.728;9.228;2022-12-29T04:41:44;11.00;99.90
2897;DHT22;1458;49.728;9.228;2022-12-29T04:44:16;11.00;99.90
2897;DHT22;1458;49.728;9.228;2022-12-29T04:47:02;11.00;99.90
2897;DHT22;1458;49.728;9.228;2022-12-29T04:49:52;11.10;99.90
2897;DHT22;1458;49.728;9.228;2022-12-29T04:52:30;11.10;99.90
2897;DHT22;1458;49.728;9.228;2022-12-29T04:54:57;11.20;99.90
2897;DHT22;1458;49.728;9.228;2022-12-29T04:57:25;11.30;99.90
2897;DHT22;1458;49.728;9.228;2022-12-29T04:59:55;11.20;99.90
2897;DHT22;1458;49.728;9.228;2022-12-29T05:02:24;11.30;99.90
2897;DHT22;1458;49.728;9.228;2022-12-29T05:04:51;11.20;99.90
2897;DHT22;1458;49.728;9.228;2022-12-29T05:07:19;11.00;99.90
2897;DHT22;1458;49.728;9.228;2022-12-29T05:09:49;10.90;99.90
2897;DHT22;1458;49.728;9.228;2022-12-29T05:12:16;10.80;99.90
2897;DHT22;1458;49.728;9.228;2022-12-29T05:14:59;10.60;99.90
2897;DHT22;1458;49.728;9.228;2022-12-29T05:17:28;10.60;99.90
2897;DHT22;1458;49.728;9.228;2022-12-29T05:19:56;10.70;99.90
2897;DHT22;1458;49.728;9.228;2022-12-29T05:22:24;10.80;99.90
2897;DHT22;1458;49.728;9.228;2022-12-29T05:24:55;10.70;99.90
2897;DHT22;1458;49.728;9.228;2022-12-29T05:27:22;10.70;99.90
2897;DHT22;1458;49.728;9.228;2022-12-29T05:30:09;10.70;99.90
2897;DHT22;1458;49.728;9.228;2022-12-29T05:32:38;10.70;99.90
2897;DHT22;1458;49.728;9.228;2022-12-29T05:35:07;10.80;99.90
2897;DHT22;1458;49.728;9.228;2022-12-29T05:37:35;10.90;99.90
2897;DHT22;1458;49.728;9.228;2022-12-29T05:40:05;11.00;99.90
2897;DHT22;1458;49.728;9.228;2022-12-29T05:42:34;11.00;99.90
2897;DHT22;1458;49.728;9.228;2022-12-29T05:45:36;11.00;99.90
2897;DHT22;1458;49.728;9.228;2022-12-29T05:48:24;11.00;99.90
2897;DHT22;1458;49.728;9.228;2022-12-29T05:51:23;11.10;99.90
2897;DHT22;1458;49.728;9.228;2022-12-29T05:53:53;11.00;99.90
2897;DHT22;1458;49.728;9.228;2022-12-29T05:56:23;11.10;99.90
2897;DHT22;1458;49.728;9.228;2022-12-29T05:58:57;11.10;99.90
2897;DHT22;1458;49.728;9.228;2022-12-29T06:01:24;11.10;99.90
2897;DHT22;1458;49.728;9.228;2022-12-29T06:03:53;11.00;99.90
2897;DHT22;1458;49.728;9.228;2022-12-29T06:06:21;11.10;99.90
2897;DHT22;1458;49.728;9.228;2022-12-29T06:08:48;11.10;99.90
2897;DHT22;1458;49.728;9.228;2022-12-29T06:11:16;11.00;99.90
2897;DHT22;1458;49.728;9.228;2022-12-29T06:13:51;11.00;99.90
2897;DHT22;1458;49.728;9.228;2022-12-29T06:16:18;10.90;99.90
2897;DHT22;1458;49.728;9.228;2022-12-29T06:18:47;10.80;99.90
2897;DHT22;1458;49.728;9.228;2022-12-29T06:21:15;10.70;99.90
2897;DHT22;1458;49.728;9.228;2022-12-29T06:23:42;10.90;99.90
2897;DHT22;1458;49.728;9.228;2022-12-29T06:26:10;11.00;99.90
2897;DHT22;1458;49.728;9.228;2022-12-29T06:28:37;11.00;99.90
2897;DHT22;1458;49.728;9.228;2022-12-29T06:31:09;10.90;99.90
2897;DHT22;1458;49.728;9.228;2022-12-29T06:33:37;11.10;99.90
2897;DHT22;1458;49.728;9.228;2022-12-29T06:36:05;11.10;99.90
2897;DHT22;1458;49.728;9.228;2022-12-29T06:38:32;11.20;99.90
2897;DHT22;1458;49.728;9.228;2022-12-29T06:41:01;11.40;99.60
2897;DHT22;1458;49.728;9.228;2022-12-29T06:43:48;11.30;99.50
2897;DHT22;1458;49.728;9.228;2022-12-29T06:46:23;11.30;99.40
2897;DHT22;1458;49.728;9.228;2022-12-29T06:48:50;11.30;99.50
2897;DHT22;1458;49.728;9.228;2022-12-29T06:51:18;11.50;99.10
2897;DHT22;1458;49.728;9.228;2022-12-29T06:53:45;11.40;98.90
2897;DHT22;1458;49.728;9.228;2022-12-29T06:56:13;11.40;99.10
2897;DHT22;1458;49.728;9.228;2022-12-29T06:58:40;11.30;99.50
2897;DHT22;1458;49.728;9.228;2022-12-29T07:01:07;11.30;99.50
2897;DHT22;1458;49.728;9.228;2022-12-29T07:03:36;11.30;99.60
2897;DHT22;1458;49.728;9.228;2022-12-29T07:06:04;11.30;99.60
2897;DHT22;1458;49.728;9.228;2022-12-29T07:08:32;11.30;99.80
2897;DHT22;1458;49.728;9.228;2022-12-29T07:10:59;11.20;99.70
2897;DHT22;1458;49.728;9.228;2022-12-29T07:13:26;11.10;99.80
2897;DHT22;1458;49.728;9.228;2022-12-29T07:15:54;11.10;99.90
2897;DHT22;1458;49.728;9.228;2022-12-29T07:18:21;11.10;99.90
2897;DHT22;1458;49.728;9.228;2022-12-29T07:20:50;11.20;99.40
2897;DHT22;1458;49.728;9.228;2022-12-29T07:23:17;11.20;99.40
2897;DHT22;1458;49.728;9.228;2022-12-29T07:25:44;11.10;99.40
2897;DHT22;1458;49.728;9.228;2022-12-29T07:28:12;11.20;99.00
2897;DHT22;1458;49.728;9.228;2022-12-29T07:30:40;11.30;99.10
2897;DHT22;1458;49.728;9.228;2022-12-29T07:33:07;11.20;99.10
2897;DHT22;1458;49.728;9.228;2022-12-29T07:35:34;11.20;99.00
2897;DHT22;1458;49.728;9.228;2022-12-29T07:38:03;11.30;98.80
2897;DHT22;1458;49.728;9.228;2022-12-29T07:40:30;11.40;98.60
2897;DHT22;1458;49.728;9.228;2022-12-29T07:42:58;11.50;97.80
2897;DHT22;1458;49.728;9.228;2022-12-29T07:45:32;11.60;97.30
2897;DHT22;1458;49.728;9.228;2022-12-29T07:48:07;11.70;97.10
2897;DHT22;1458;49.728;9.228;2022-12-29T07:50:35;11.60;97.10
2897;DHT22;1458;49.728;9.228;2022-12-29T07:53:04;11.70;96.80
2897;DHT22;1458;49.728;9.228;2022-12-29T07:55:31;11.60;97.10
2897;DHT22;1458;49.728;9.228;2022-12-29T07:57:59;11.60;97.30
2897;DHT22;1458;49.728;9.228;2022-12-29T08:00:26;11.70;96.90
2897;DHT22;1458;49.728;9.228;2022-12-29T08:02:54;11.60;97.10
2897;DHT22;1458;49.728;9.228;2022-12-29T08:05:21;11.40;97.70
2897;DHT22;1458;49.728;9.228;2022-12-29T08:07:48;11.40;97.80
2897;DHT22;1458;49.728;9.228;2022-12-29T08:10:17;11.50;97.30
2897;DHT22;1458;49.728;9.228;2022-12-29T08:12:45;11.70;96.80
2897;DHT22;1458;49.728;9.228;2022-12-29T08:15:12;11.70;96.20
2897;DHT22;1458;49.728;9.228;2022-12-29T08:17:40;11.80;96.00
2897;DHT22;1458;49.728;9.228;2022-12-29T08:20:08;11.90;95.40
2897;DHT22;1458;49.728;9.228;2022-12-29T08:22:37;11.90;95.20
2897;DHT22;1458;49.728;9.228;2022-12-29T08:25:04;12.00;95.00
2897;DHT22;1458;49.728;9.228;2022-12-29T08:27:33;12.10;94.30
2897;DHT22;1458;49.728;9.228;2022-12-29T08:30:01;12.00;94.50
2897;DHT22;1458;49.728;9.228;2022-12-29T08:32:28;12.10;94.30
2897;DHT22;1458;49.728;9.228;2022-12-29T08:34:56;12.10;94.40
2897;DHT22;1458;49.728;9.228;2022-12-29T08:37:23;12.10;94.00
2897;DHT22;1458;49.728;9.228;2022-12-29T08:39:50;12.20;93.50
2897;DHT22;1458;49.728;9.228;2022-12-29T08:42:18;12.30;93.20
2897;DHT22;1458;49.728;9.228;2022-12-29T08:44:46;12.30;93.30
2897;DHT22;1458;49.728;9.228;2022-12-29T08:47:14;12.40;93.10
2897;DHT22;1458;49.728;9.228;2022-12-29T08:49:41;12.40;92.70
2897;DHT22;1458;49.728;9.228;2022-12-29T08:52:08;12.50;92.50
2897;DHT22;1458;49.728;9.228;2022-12-29T08:54:36;12.60;92.30
2897;DHT22;1458;49.728;9.228;2022-12-29T08:57:03;12.60;92.10
2897;DHT22;1458;49.728;9.228;2022-12-29T08:59:38;12.50;92.20
2897;DHT22;1458;49.728;9.228;2022-12-29T09:02:12;12.60;92.30
2897;DHT22;1458;49.728;9.228;2022-12-29T09:04:39;12.70;91.60
2897;DHT22;1458;49.728;9.228;2022-12-29T09:07:07;12.80;91.40
2897;DHT22;1458;49.728;9.228;2022-12-29T09:09:34;12.70;91.60
2897;DHT22;1458;49.728;9.228;2022-12-29T09:12:02;12.70;91.50
2897;DHT22;1458;49.728;9.228;2022-12-29T09:14:29;12.80;91.20
2897;DHT22;1458;49.728;9.228;2022-12-29T09:16:56;12.80;90.90
2897;DHT22;1458;49.728;9.228;2022-12-29T09:19:43;12.80;91.40
2897;DHT22;1458;49.728;9.228;2022-12-29T09:22:10;12.70;91.60
2897;DHT22;1458;49.728;9.228;2022-12-29T09:24:37;12.70;91.60
2897;DHT22;1458;49.728;9.228;2022-12-29T09:27:05;12.60;91.50
2897;DHT22;1458;49.728;9.228;2022-12-29T09:29:32;12.50;91.80
2897;DHT22;1458;49.728;9.228;2022-12-29T09:31:59;12.50;91.80
2897;DHT22;1458;49.728;9.228;2022-12-29T09:34:27;12.40;91.80
2897;DHT22;1458;49.728;9.228;2022-12-29T09:36:55;12.30;92.20
2897;DHT22;1458;49.728;9.228;2022-12-29T09:39:23;12.30;92.90
2897;DHT22;1458;49.728;9.228;2022-12-29T09:42:00;12.40;92.70
2897;DHT22;1458;49.728;9.228;2022-12-29T09:44:42;12.50;92.10
2897;DHT22;1458;49.728;9.228;2022-12-29T09:47:17;12.60;91.90
2897;DHT22;1458;49.728;9.228;2022-12-29T09:49:49;12.50;92.30
2897;DHT22;1458;49.728;9.228;2022-12-29T09:52:22;12.50;92.20
2897;DHT22;1458;49.728;9.228;2022-12-29T09:54:57;12.60;92.20
2897;DHT22;1458;49.728;9.228;2022-12-29T09:57:32;12.60;91.90
2897;DHT22;1458;49.728;9.228;2022-12-29T10:00:05;12.70;92.00
2897;DHT22;1458;49.728;9.228;2022-12-29T10:02:40;12.70;91.60
2897;DHT22;1458;49.728;9.228;2022-12-29T10:05:27;12.80;91.60
2897;DHT22;1458;49.728;9.228;2022-12-29T10:08:11;12.80;91.50
2897;DHT22;1458;49.728;9.228;2022-12-29T10:10:55;12.80;92.00
2897;DHT22;1458;49.728;9.228;2022-12-29T10:13:30;12.70;92.20
2897;DHT22;1458;49.728;9.228;2022-12-29T10:16:09;12.50;92.50
2897;DHT22;1458;49.728;9.228;2022-12-29T10:22:09;12.60;93.20
2897;DHT22;1458;49.728;9.228;2022-12-29T10:24:47;12.40;93.80
2897;DHT22;1458;49.728;9.228;2022-12-29T10:27:16;12.30;95.00
2897;DHT22;1458;49.728;9.228;2022-12-29T10:29:48;12.30;95.00
2897;DHT22;1458;49.728;9.228;2022-12-29T10:32:26;12.40;94.10
2897;DHT22;1458;49.728;9.228;2022-12-29T10:35:00;12.40;94.20
2897;DHT22;1458;49.728;9.228;2022-12-29T10:37:37;12.40;94.20
2897;DHT22;1458;49.728;9.228;2022-12-29T10:40:19;12.40;94.00
2897;DHT22;1458;49.728;9.228;2022-12-29T10:42:53;12.30;94.10
2897;DHT22;1458;49.728;9.228;2022-12-29T10:45:24;12.20;94.70
2897;DHT22;1458;49.728;9.228;2022-12-29T10:47:57;12.30;94.40
2897;DHT22;1458;49.728;9.228;2022-12-29T10:50:27;12.30;94.30
2897;DHT22;1458;49.728;9.228;2022-12-29T10:52:58;12.40;93.80
2897;DHT22;1458;49.728;9.228;2022-12-29T10:55:33;12.40;93.30
2897;DHT22;1458;49.728;9.228;2022-12-29T10:58:05;12.40;93.50
2897;DHT22;1458;49.728;9.228;2022-12-29T11:00:33;12.50;93.70
2897;DHT22;1458;49.728;9.228;2022-12-29T11:06:12;12.50;94.10
2897;DHT22;1458;49.728;9.228;2022-12-29T11:08:50;12.40;94.80
2897;DHT22;1458;49.728;9.228;2022-12-29T11:11:26;12.60;93.00
2897;DHT22;1458;49.728;9.228;2022-12-29T11:14:01;12.70;93.10
2897;DHT22;1458;49.728;9.228;2022-12-29T11:16:32;12.70;93.00
2897;DHT22;1458;49.728;9.228;2022-12-29T11:19:00;12.70;92.80
2897;DHT22;1458;49.728;9.228;2022-12-29T11:21:32;12.70;92.80
2897;DHT22;1458;49.728;9.228;2022-12-29T11:24:19;12.80;92.70
2897;DHT22;1458;49.728;9.228;2022-12-29T11:26:51;12.90;92.20
2897;DHT22;1458;49.728;9.228;2022-12-29T11:29:25;13.00;92.20
2897;DHT22;1458;49.728;9.228;2022-12-29T11:31:58;13.10;92.40
2897;DHT22;1458;49.728;9.228;2022-12-29T11:34:33;13.00;92.40
2897;DHT22;1458;49.728;9.228;2022-12-29T11:37:04;13.00;92.90
2897;DHT22;1458;49.728;9.228;2022-12-29T11:39:37;13.10;92.60
2897;DHT22;1458;49.728;9.228;2022-12-29T11:42:13;13.00;92.00
2897;DHT22;1458;49.728;9.228;2022-12-29T11:44:44;12.90;92.60
2897;DHT22;1458;49.728;9.228;2022-12-29T11:47:24;12.80;93.20
2897;DHT22;1458;49.728;9.228;2022-12-29T11:49:56;12.80;92.40
2897;DHT22;1458;49.728;9.228;2022-12-29T11:52:26;12.70;92.70
2897;DHT22;1458;49.728;9.228;2022-12-29T11:54:57;12.90;92.80
2897;DHT22;1458;49.728;9.228;2022-12-29T11:57:27;13.00;92.40
2897;DHT22;1458;49.728;9.228;2022-12-29T11:59:56;13.00;92.00
2897;DHT22;1458;49.728;9.228;2022-12-29T12:02:46;13.00;92.20
2897;DHT22;1458;49.728;9.228;2022-12-29T12:05:23;13.00;92.10
2897;DHT22;1458;49.728;9.228;2022-12-29T12:07:57;13.00;91.90
2897;DHT22;1458;49.728;9.228;2022-12-29T12:10:31;13.00;92.70
2897;DHT22;1458;49.728;9.228;2022-12-29T12:13:16;12.80;93.00
2897;DHT22;1458;49.728;9.228;2022-12-29T12:15:52;12.80;93.30
2897;DHT22;1458;49.728;9.228;2022-12-29T12:18:33;12.80;92.60
2897;DHT22;1458;49.728;9.228;2022-12-29T12:21:10;12.70;93.00
2897;DHT22;1458;49.728;9.228;2022-12-29T12:23:52;12.60;92.30
2897;DHT22;1458;49.728;9.228;2022-12-29T12:26:32;12.40;93.10
2897;DHT22;1458;49.728;9.228;2022-12-29T12:29:08;12.40;93.10
2897;DHT22;1458;49.728;9.228;2022-12-29T12:31:44;12.40;92.90
2897;DHT22;1458;49.728;9.228;2022-12-29T12:34:19;12.40;93.40
2897;DHT22;1458;49.728;9.228;2022-12-29T12:37:06;12.40;93.10
2897;DHT22;1458;49.728;9.228;2022-12-29T12:40:06;12.30;93.50
2897;DHT22;1458;49.728;9.228;2022-12-29T12:42:54;12.30;93.10
2897;DHT22;1458;49.728;9.228;2022-12-29T12:45:38;12.30;93.20
2897;DHT22;1458;49.728;9.228;2022-12-29T12:48:24;12.20;93.30
2897;DHT22;1458;49.728;9.228;2022-12-29T12:51:20;12.20;93.90
2897;DHT22;1458;49.728;9.228;2022-12-29T12:54:02;12.10;94.30
2897;DHT22;1458;49.728;9.228;2022-12-29T12:56:57;12.00;94.60
2897;DHT22;1458;49.728;9.228;2022-12-29T12:59:39;12.00;94.80
2897;DHT22;1458;49.728;9.228;2022-12-29T13:02:24;12.00;95.30
2897;DHT22;1458;49.728;9.228;2022-12-29T13:05:29;12.00;95.70
2897;DHT22;1458;49.728;9.228;2022-12-29T13:08:21;12.20;95.50
2897;DHT22;1458;49.728;9.228;2022-12-29T13:11:04;12.10;96.40
2897;DHT22;1458;49.728;9.228;2022-12-29T13:13:52;12.00;97.40
2897;DHT22;1458;49.728;9.228;2022-12-29T13:16:39;11.90;98.50
2897;DHT22;1458;49.728;9.228;2022-12-29T13:19:16;11.80;99.30
2897;DHT22;1458;49.728;9.228;2022-12-29T13:21:55;11.70;99.60
2897;DHT22;1458;49.728;9.228;2022-12-29T13:24:35;11.70;99.30
2897;DHT22;1458;49.728;9.228;2022-12-29T13:27:15;11.70;98.80
2897;DHT22;1458;49.728;9.228;2022-12-29T13:29:50;11.80;98.40
2897;DHT22;1458;49.728;9.228;2022-12-29T13:32:32;11.80;98.10
2897;DHT22;1458;49.728;9.228;2022-12-29T13:35:25;11.80;97.90
2897;DHT22;1458;49.728;9.228;2022-12-29T13:38:09;11.90;96.70
2897;DHT22;1458;49.728;9.228;2022-12-29T13:40:43;11.90;96.20
2897;DHT22;1458;49.728;9.228;2022-12-29T13:43:14;12.00;96.00
2897;DHT22;1458;49.728;9.228;2022-12-29T13:45:43;12.00;95.60
2897;DHT22;1458;49.728;9.228;2022-12-29T13:48:15;11.90;95.60
2897;DHT22;1458;49.728;9.228;2022-12-29T13:50:57;11.80;96.00
2897;DHT22;1458;49.728;9.228;2022-12-29T13:53:31;11.90;96.20
2897;DHT22;1458;49.728;9.228;2022-12-29T13:56:07;12.00;95.80
2897;DHT22;1458;49.728;9.228;2022-12-29T13:58:44;12.00;95.30
2897;DHT22;1458;49.728;9.228;2022-12-29T14:01:20;12.00;95.70
2897;DHT22;1458;49.728;9.228;2022-12-29T14:03:53;12.00;95.70
2897;DHT22;1458;49.728;9.228;2022-12-29T14:06:24;12.10;94.60
2897;DHT22;1458;49.728;9.228;2022-12-29T14:08:54;12.10;94.60
2897;DHT22;1458;49.728;9.228;2022-12-29T14:11:28;12.00;94.40
2897;DHT22;1458;49.728;9.228;2022-12-29T14:13:58;11.90;94.80
2897;DHT22;1458;49.728;9.228;2022-12-29T14:16:31;11.80;95.60
2897;DHT22;1458;49.728;9.228;2022-12-29T14:19:11;11.80;96.10
2897;DHT22;1458;49.728;9.228;2022-12-29T14:21:50;11.80;95.90
2897;DHT22;1458;49.728;9.228;2022-12-29T14:27:42;11.70;96.10
2897;DHT22;1458;49.728;9.228;2022-12-29T14:33:21;11.50;96.30
2897;DHT22;1458;49.728;9.228;2022-12-29T14:35:52;11.60;96.20
2897;DHT22;1458;49.728;9.228;2022-12-29T14:38:39;11.50;96.60
2897;DHT22;1458;49.728;9.228;2022-12-29T14:41:24;11.40;97.10
2897;DHT22;1458;49.728;9.228;2022-12-29T14:43:58;11.40;97.50
2897;DHT22;1458;49.728;9.228;2022-12-29T14:46:45;11.40;97.60
2897;DHT22;1458;49.728;9.228;2022-12-29T14:49:18;11.30;98.50
2897;DHT22;1458;49.728;9.228;2022-12-29T14:51:48;11.20;98.20
2897;DHT22;1458;49.728;9.228;2022-12-29T14:54:47;11.20;98.60
2897;DHT22;1458;49.728;9.228;2022-12-29T14:57:37;11.10;98.80
2897;DHT22;1458;49.728;9.228;2022-12-29T15:00:18;10.90;99.90
2897;DHT22;1458;49.728;9.228;2022-12-29T15:02:50;10.70;99.90
2897;DHT22;1458;49.728;9.228;2022-12-29T15:05:35;10.60;99.90
2897;DHT22;1458;49.728;9.228;2022-12-29T15:08:04;10.50;99.90
2897;DHT22;1458;49.728;9.228;2022-12-29T15:10:39;10.30;99.90
2897;DHT22;1458;49.728;9.228;2022-12-29T15:13:16;10.20;99.90
2897;DHT22;1458;49.728;9.228;2022-12-29T15:15:44;10.10;99.90
2897;DHT22;1458;49.728;9.228;2022-12-29T15:18:24;10.00;99.90
2897;DHT22;1458;49.728;9.228;2022-12-29T15:20:55;9.90;99.90
2897;DHT22;1458;49.728;9.228;2022-12-29T15:23:25;9.80;99.90
2897;DHT22;1458;49.728;9.228;2022-12-29T15:25:57;9.80;99.90
2897;DHT22;1458;49.728;9.228;2022-12-29T15:28:27;9.80;99.90
2897;DHT22;1458;49.728;9.228;2022-12-29T15:31:05;9.70;99.90
2897;DHT22;1458;49.728;9.228;2022-12-29T15:33:39;9.50;99.90
2897;DHT22;1458;49.728;9.228;2022-12-29T15:36:11;9.40;99.90
2897;DHT22;1458;49.728;9.228;2022-12-29T15:38:40;9.40;99.90
2897;DHT22;1458;49.728;9.228;2022-12-29T15:41:20;9.40;99.90
2897;DHT22;1458;49.728;9.228;2022-12-29T15:46:41;9.40;99.90
2897;DHT22;1458;49.728;9.228;2022-12-29T15:49:11;9.30;99.90
2897;DHT22;1458;49.728;9.228;2022-12-29T15:51:40;9.30;99.90
2897;DHT22;1458;49.728;9.228;2022-12-29T15:54:15;9.30;99.90
2897;DHT22;1458;49.728;9.228;2022-12-29T15:56:46;9.30;99.90
2897;DHT22;1458;49.728;9.228;2022-12-29T15:59:24;9.20;99.90
2897;DHT22;1458;49.728;9.228;2022-12-29T16:01:53;9.20;99.90
2897;DHT22;1458;49.728;9.228;2022-12-29T16:04:21;9.20;99.90
2897;DHT22;1458;49.728;9.228;2022-12-29T16:06:55;9.00;99.90
2897;DHT22;1458;49.728;9.228;2022-12-29T16:09:31;8.80;99.90
2897;DHT22;1458;49.728;9.228;2022-12-29T16:12:02;8.70;99.90
2897;DHT22;1458;49.728;9.228;2022-12-29T16:14:34;8.70;99.90
2897;DHT22;1458;49.728;9.228;2022-12-29T16:17:05;8.70;99.90
2897;DHT22;1458;49.728;9.228;2022-12-29T16:19:35;8.50;99.90
2897;DHT22;1458;49.728;9.228;2022-12-29T16:22:10;8.40;99.90
2897;DHT22;1458;49.728;9.228;2022-12-29T16:24:40;8.40;99.90
2897;DHT22;1458;49.728;9.228;2022-12-29T16:27:12;8.40;99.90
2897;DHT22;1458;49.728;9.228;2022-12-29T16:29:44;8.40;99.90
2897;DHT22;1458;49.728;9.228;2022-12-29T16:32:24;8.50;99.90
2897;DHT22;1458;49.728;9.228;2022-12-29T16:35:11;8.40;99.90
2897;DHT22;1458;49.728;9.228;2022-12-29T16:37:40;8.70;99.90
2897;DHT22;1458;49.728;9.228;2022-12-29T16:40:28;8.80;99.90
2897;DHT22;1458;49.728;9.228;2022-12-29T16:43:00;8.70;99.90
2897;DHT22;1458;49.728;9.228;2022-12-29T16:48:53;8.90;99.90
2897;DHT22;1458;49.728;9.228;2022-12-29T16:51:29;8.80;99.90
2897;DHT22;1458;49.728;9.228;2022-12-29T16:53:58;8.70;99.90
2897;DHT22;1458;49.728;9.228;2022-12-29T16:56:28;8.70;99.90
2897;DHT22;1458;49.728;9.228;2022-12-29T16:59:02;8.60;99.90
2897;DHT22;1458;49.728;9.228;2022-12-29T17:01:35;8.60;99.90
2897;DHT22;1458;49.728;9.228;2022-12-29T17:04:06;8.60;99.90
2897;DHT22;1458;49.728;9.228;2022-12-29T17:06:36;8.60;99.90
2897;DHT22;1458;49.728;9.228;2022-12-29T17:09:16;8.70;99.90